Time;durP1;ratioP1;P1;durP2;ratioP2;P2;SDS_P1;SDS_P2;PMS_P1;PMS_P2;Temp;Humidity;BMP_temperature;BMP_pressure;BME280_temperature;BME280_humidity;BME280_pressure;Samples;Min_cycle;Max_cycle;Signal;HPM_P1;HPM_P2
2021/07/02 00:00:40;0.00;0.00;0.62;0.00;0.00;0.62;24.30;13.27;;;24.10;44.10;;;;;;2245964;61;20465;-67
2021/07/02 00:03:07;0.00;0.00;0.62;0.00;0.00;0.62;21.17;12.40;;;24.10;44.00;;;;;;2238786;61;20378;-66
2021/07/02 00:05:34;0.00;0.00;0.62;0.00;0.00;0.62;18.33;13.40;;;24.10;44.00;;;;;;2245974;61;20362;-68
2021/07/02 00:08:01;0.00;0.00;0.62;0.00;0.00;0.62;20.00;12.93;;;24.10;44.00;;;;;;2246185;61;20394;-65
2021/07/02 00:10:27;0.00;0.00;0.62;0.00;0.00;0.62;17.40;12.00;;;24.10;43.90;;;;;;2245687;61;20352;-63
2021/07/02 00:12:55;0.00;0.00;0.62;0.00;0.00;0.62;22.23;13.73;;;24.10;43.90;;;;;;2242231;61;20730;-68
2021/07/02 00:15:22;0.00;0.00;0.62;0.00;0.00;0.62;19.90;12.37;;;24.10;43.90;;;;;;2246296;61;20433;-69
2021/07/02 00:17:48;0.00;0.00;0.62;0.00;0.00;0.62;17.57;11.90;;;24.20;44.00;;;;;;2245641;61;20364;-66
2021/07/02 00:20:15;0.00;0.00;0.62;0.00;0.00;0.62;19.70;11.77;;;24.10;43.90;;;;;;2242150;61;21051;-66
2021/07/02 00:22:41;0.00;0.00;0.62;0.00;0.00;0.62;21.13;11.63;;;24.10;43.90;;;;;;2246253;61;20418;-70
2021/07/02 00:25:10;0.00;0.00;0.62;0.00;0.00;0.62;21.30;12.33;;;24.10;44.00;;;;;;2245463;61;20370;-68
2021/07/02 00:27:36;0.00;0.00;0.62;0.00;0.00;0.62;21.03;12.70;;;24.10;44.00;;;;;;2245767;61;20413;-65
2021/07/02 00:30:06;0.00;0.00;0.62;0.00;0.00;0.62;24.90;12.80;;;24.10;44.10;;;;;;2246299;61;20401;-67
2021/07/02 00:32:33;0.00;0.00;0.62;0.00;0.00;0.62;17.30;11.77;;;24.10;44.20;;;;;;2245281;61;20446;-69
2021/07/02 00:34:59;0.00;0.00;0.62;0.00;0.00;0.62;19.37;10.70;;;24.10;44.20;;;;;;2245893;61;20366;-67
2021/07/02 00:37:26;0.00;0.00;0.62;0.00;0.00;0.62;21.80;13.37;;;24.10;44.20;;;;;;2246243;61;20367;-67
2021/07/02 00:39:52;0.00;0.00;0.62;0.00;0.00;0.62;24.10;13.43;;;24.10;44.30;;;;;;2241358;61;20600;-65
2021/07/02 00:42:19;0.00;0.00;0.62;0.00;0.00;0.62;22.67;13.30;;;24.10;44.30;;;;;;2242090;61;20710;-66
2021/07/02 00:44:48;0.00;0.00;0.62;0.00;0.00;0.62;17.03;10.80;;;24.10;44.30;;;;;;2242605;61;20363;-65
2021/07/02 00:47:18;0.00;0.00;0.62;0.00;0.00;0.62;23.30;12.70;;;24.00;44.20;;;;;;2241559;61;20668;-62
2021/07/02 00:49:45;0.00;0.00;0.62;0.00;0.00;0.62;27.70;12.80;;;24.00;44.20;;;;;;2242136;61;20455;-67
2021/07/02 00:52:14;0.00;0.00;0.62;0.00;0.00;0.62;23.30;12.80;;;24.00;44.30;;;;;;2242446;61;20378;-64
2021/07/02 00:54:43;0.00;0.00;0.62;0.00;0.00;0.62;21.53;12.03;;;24.00;44.30;;;;;;2241537;61;20370;-65
2021/07/02 00:57:11;0.00;0.00;0.62;0.00;0.00;0.62;20.90;12.57;;;24.00;44.30;;;;;;2242101;61;20363;-70
2021/07/02 00:59:41;0.00;0.00;0.62;0.00;0.00;0.62;20.10;13.80;;;24.00;44.30;;;;;;2246099;61;20390;-63
2021/07/02 01:02:09;0.00;0.00;0.62;0.00;0.00;0.62;18.73;12.23;;;24.00;44.30;;;;;;2241489;61;20468;-70
2021/07/02 01:04:38;0.00;0.00;0.62;0.00;0.00;0.62;25.50;13.47;;;24.00;44.30;;;;;;2245959;61;20367;-68
2021/07/02 01:07:06;0.00;0.00;0.62;0.00;0.00;0.62;25.10;14.37;;;24.00;44.20;;;;;;2246220;61;20438;-66
2021/07/02 01:09:33;0.00;0.00;0.62;0.00;0.00;0.62;25.13;13.80;;;24.00;44.20;;;;;;2238221;61;20787;-68
2021/07/02 01:12:00;0.00;0.00;0.62;0.00;0.00;0.62;21.00;13.07;;;24.00;44.80;;;;;;2241959;61;20475;-68
2021/07/02 01:14:28;0.00;0.00;0.62;0.00;0.00;0.62;19.47;13.13;;;24.00;44.20;;;;;;2242435;61;20362;-67
2021/07/02 01:16:57;0.00;0.00;0.62;0.00;0.00;0.62;28.97;14.07;;;24.00;44.20;;;;;;2241499;61;20350;-66
2021/07/02 01:19:26;0.00;0.00;0.62;0.00;0.00;0.62;30.93;13.70;;;23.90;44.30;;;;;;2245764;61;20628;-68
2021/07/02 01:21:55;0.00;0.00;0.62;0.00;0.00;0.62;31.30;13.93;;;23.90;44.30;;;;;;2242225;61;20410;-66
2021/07/02 01:24:22;0.00;0.00;0.62;0.00;0.00;0.62;26.07;13.87;;;23.90;44.30;;;;;;2241489;61;20366;-64
2021/07/02 01:26:51;0.00;0.00;0.62;0.00;0.00;0.62;32.97;14.53;;;23.90;44.30;;;;;;2242158;61;20426;-65
2021/07/02 01:29:19;0.00;0.00;0.62;0.00;0.00;0.62;18.13;11.97;;;23.90;44.40;;;;;;2242270;61;20358;-67
2021/07/02 01:31:46;0.00;0.00;0.62;0.00;0.00;0.62;24.73;12.70;;;23.90;44.30;;;;;;2245030;61;20382;-66
2021/07/02 01:34:13;0.00;0.00;0.62;0.00;0.00;0.62;23.27;13.37;;;23.90;44.30;;;;;;2242146;61;20389;-67
2021/07/02 01:36:39;0.00;0.00;0.62;0.00;0.00;0.62;21.47;13.83;;;23.90;44.30;;;;;;2246010;61;20355;-67
2021/07/02 01:39:11;0.00;0.00;0.62;0.00;0.00;0.62;23.50;12.77;;;23.80;44.30;;;;;;2241395;61;20359;-67
2021/07/02 01:41:38;0.00;0.00;0.62;0.00;0.00;0.62;23.97;13.00;;;23.90;44.30;;;;;;2245711;61;20360;-65
2021/07/02 01:44:05;0.00;0.00;0.62;0.00;0.00;0.62;23.07;12.43;;;23.80;44.30;;;;;;2242243;61;20559;-65
2021/07/02 01:46:32;0.00;0.00;0.62;0.00;0.00;0.62;22.10;13.07;;;23.80;44.20;;;;;;2241674;61;20355;-66
2021/07/02 01:49:00;0.00;0.00;0.62;0.00;0.00;0.62;23.97;12.67;;;23.80;44.30;;;;;;2241842;61;20358;-67
2021/07/02 01:51:31;0.00;0.00;0.62;0.00;0.00;0.62;20.97;12.80;;;23.80;44.30;;;;;;2245797;61;20362;-67
2021/07/02 01:53:58;0.00;0.00;0.62;0.00;0.00;0.62;22.90;12.90;;;23.80;44.30;;;;;;2241526;61;20509;-65
2021/07/02 01:56:27;0.00;0.00;0.62;0.00;0.00;0.62;29.00;13.73;;;23.80;44.30;;;;;;2245640;61;20362;-65
2021/07/02 01:58:54;0.00;0.00;0.62;0.00;0.00;0.62;23.00;12.97;;;23.80;44.30;;;;;;2245991;61;20366;-65
2021/07/02 02:01:30;0.00;0.00;0.62;0.00;0.00;0.62;23.07;11.30;;;23.70;44.30;;;;;;2245478;61;20440;-67
2021/07/02 02:03:59;0.00;0.00;0.62;0.00;0.00;0.62;26.07;12.40;;;23.80;44.40;;;;;;2245615;61;20374;-69
2021/07/02 02:06:29;0.00;0.00;0.62;0.00;0.00;0.62;16.50;12.57;;;23.70;44.40;;;;;;2238856;61;20378;-66
2021/07/02 02:08:58;0.00;0.00;0.62;0.00;0.00;0.62;20.17;12.97;;;23.70;44.40;;;;;;2241822;61;20359;-68
2021/07/02 02:11:29;0.00;0.00;0.62;0.00;0.00;0.62;25.50;12.80;;;23.70;44.40;;;;;;2241763;61;20359;-69
2021/07/02 02:13:59;0.00;0.00;0.62;0.00;0.00;0.62;20.43;12.57;;;23.70;44.40;;;;;;2241744;61;20376;-65
2021/07/02 02:16:28;0.00;0.00;0.62;0.00;0.00;0.62;19.93;12.30;;;23.70;44.50;;;;;;2245489;61;20358;-67
2021/07/02 02:18:59;0.00;0.00;0.62;0.00;0.00;0.62;18.13;11.50;;;23.70;44.60;;;;;;2238731;61;20406;-67
2021/07/02 02:21:26;0.00;0.00;0.62;0.00;0.00;0.62;16.57;12.23;;;23.60;44.50;;;;;;2241659;61;20386;-70
2021/07/02 02:23:53;0.00;0.00;0.62;0.00;0.00;0.62;22.20;12.77;;;23.60;44.50;;;;;;2241750;61;20428;-63
2021/07/02 02:26:20;0.00;0.00;0.62;0.00;0.00;0.62;16.10;11.53;;;23.60;44.50;;;;;;2241896;61;20355;-67
2021/07/02 02:28:48;0.00;0.00;0.62;0.00;0.00;0.62;20.93;12.57;;;23.60;44.50;;;;;;2238581;61;20442;-65
2021/07/02 02:31:14;0.00;0.00;0.62;0.00;0.00;0.62;21.07;11.67;;;23.60;44.50;;;;;;2238380;61;20355;-67
2021/07/02 02:33:44;0.00;0.00;0.62;0.00;0.00;0.62;16.63;12.10;;;23.60;44.50;;;;;;2241901;61;20373;-64
2021/07/02 02:36:11;0.00;0.00;0.62;0.00;0.00;0.62;17.57;10.20;;;23.60;44.60;;;;;;2241719;61;20358;-64
2021/07/02 02:38:37;0.00;0.00;0.62;0.00;0.00;0.62;23.13;12.93;;;23.60;44.60;;;;;;2245451;61;20358;-64
2021/07/02 02:41:05;0.00;0.00;0.62;0.00;0.00;0.62;15.40;11.17;;;23.60;44.60;;;;;;2241698;61;20430;-65
2021/07/02 02:43:31;0.00;0.00;0.62;0.00;0.00;0.62;21.90;12.07;;;23.60;44.70;;;;;;2241704;61;20405;-67
2021/07/02 02:45:59;0.00;0.00;0.62;0.00;0.00;0.62;18.73;12.10;;;23.60;44.50;;;;;;2241678;61;20359;-65
2021/07/02 02:48:27;0.00;0.00;0.62;0.00;0.00;0.62;20.93;12.10;;;23.60;44.60;;;;;;2241828;61;20366;-63
2021/07/02 02:50:54;0.00;0.00;0.62;0.00;0.00;0.62;18.37;12.60;;;23.60;44.60;;;;;;2241721;61;20470;-66
2021/07/02 02:53:22;0.00;0.00;0.62;0.00;0.00;0.62;20.37;12.10;;;23.60;44.50;;;;;;2241545;61;20401;-67
2021/07/02 02:55:49;0.00;0.00;0.62;0.00;0.00;0.62;16.97;11.80;;;23.60;44.60;;;;;;2241841;61;20413;-67
2021/07/02 02:58:16;0.00;0.00;0.62;0.00;0.00;0.62;19.93;13.00;;;23.50;44.50;;;;;;2241808;61;20359;-65
2021/07/02 03:00:42;0.00;0.00;0.62;0.00;0.00;0.62;21.13;12.33;;;23.60;44.60;;;;;;2245268;61;20413;-69
2021/07/02 03:03:10;0.00;0.00;0.62;0.00;0.00;0.62;23.50;13.37;;;23.50;44.50;;;;;;2241653;61;20379;-68
2021/07/02 03:05:38;0.00;0.00;0.62;0.00;0.00;0.62;18.33;11.00;;;23.50;44.50;;;;;;2241893;61;20366;-68
2021/07/02 03:08:07;0.00;0.00;0.62;0.00;0.00;0.62;19.07;11.40;;;23.50;44.60;;;;;;2245266;61;20363;-68
2021/07/02 03:10:40;0.00;0.00;0.62;0.00;0.00;0.62;19.10;11.43;;;23.50;44.60;;;;;;2241728;61;20688;-69
2021/07/02 03:13:08;0.00;0.00;0.62;0.00;0.00;0.62;15.53;11.40;;;23.50;44.70;;;;;;2241623;61;20727;-66
2021/07/02 03:15:35;0.00;0.00;0.62;0.00;0.00;0.62;27.90;13.17;;;23.50;44.70;;;;;;2245349;61;20696;-66
2021/07/02 03:18:02;0.00;0.00;0.62;0.00;0.00;0.62;16.07;10.60;;;23.50;44.70;;;;;;2245471;61;20590;-65
2021/07/02 03:20:30;0.00;0.00;0.62;0.00;0.00;0.62;18.90;12.03;;;23.50;44.70;;;;;;2245315;61;20415;-65
2021/07/02 03:22:58;0.00;0.00;0.62;0.00;0.00;0.62;19.10;12.57;;;23.50;44.70;;;;;;2241556;61;20634;-66
2021/07/02 03:25:25;0.00;0.00;0.62;0.00;0.00;0.62;22.63;13.30;;;23.50;44.70;;;;;;2241388;61;20568;-66
2021/07/02 03:27:53;0.00;0.00;0.62;0.00;0.00;0.62;18.17;12.20;;;23.50;44.70;;;;;;2240873;61;20702;-66
2021/07/02 03:30:20;0.00;0.00;0.62;0.00;0.00;0.62;18.93;12.50;;;23.50;44.70;;;;;;2244146;61;20355;-69
2021/07/02 03:32:48;0.00;0.00;0.62;0.00;0.00;0.62;16.13;11.67;;;23.50;44.70;;;;;;2241831;61;20410;-69
2021/07/02 03:35:16;0.00;0.00;0.62;0.00;0.00;0.62;16.57;11.33;;;23.50;44.70;;;;;;2242488;61;20418;-66
2021/07/02 03:37:45;0.00;0.00;0.62;0.00;0.00;0.62;17.57;11.83;;;23.50;44.70;;;;;;2242266;61;20778;-66
2021/07/02 03:40:13;0.00;0.00;0.62;0.00;0.00;0.62;14.33;10.83;;;23.40;44.70;;;;;;2242266;61;20465;-67
2021/07/02 03:42:46;0.00;0.00;0.62;0.00;0.00;0.62;19.77;11.20;;;23.40;44.70;;;;;;2245575;61;20381;-67
2021/07/02 03:45:13;0.00;0.00;0.62;0.00;0.00;0.62;15.10;11.53;;;23.50;44.80;;;;;;2241643;61;20366;-67
2021/07/02 03:47:40;0.00;0.00;0.62;0.00;0.00;0.62;19.87;11.63;;;23.40;44.70;;;;;;2242320;61;20365;-68
2021/07/02 03:50:09;0.00;0.00;0.62;0.00;0.00;0.62;18.17;12.27;;;23.50;44.80;;;;;;2242298;61;20579;-67
2021/07/02 03:52:36;0.00;0.00;0.62;0.00;0.00;0.62;19.03;11.30;;;23.40;44.60;;;;;;2245731;61;20744;-69
2021/07/02 03:55:06;0.00;0.00;0.62;0.00;0.00;0.62;19.80;12.47;;;23.50;44.70;;;;;;2245998;61;20687;-66
2021/07/02 03:57:32;0.00;0.00;0.62;0.00;0.00;0.62;22.70;12.63;;;23.50;44.70;;;;;;2242302;61;20367;-67
2021/07/02 03:59:59;0.00;0.00;0.62;0.00;0.00;0.62;24.00;11.77;;;23.40;44.60;;;;;;2242150;61;20385;-65
2021/07/02 04:02:25;0.00;0.00;0.62;0.00;0.00;0.62;24.57;11.60;;;23.40;44.60;;;;;;2245805;61;20663;-66
2021/07/02 04:04:52;0.00;0.00;0.62;0.00;0.00;0.62;19.33;11.13;;;23.40;44.70;;;;;;2246224;61;20350;-66
2021/07/02 04:07:20;0.00;0.00;0.62;0.00;0.00;0.62;16.20;11.13;;;23.40;44.60;;;;;;2245955;61;20483;-68
2021/07/02 04:09:46;0.00;0.00;0.62;0.00;0.00;0.62;22.00;11.77;;;23.40;44.70;;;;;;2245795;61;20447;-68
2021/07/02 04:12:14;0.00;0.00;0.62;0.00;0.00;0.62;21.80;11.07;;;23.40;44.70;;;;;;2242355;61;20379;-68
2021/07/02 04:14:41;0.00;0.00;0.62;0.00;0.00;0.62;20.50;12.83;;;23.40;44.60;;;;;;2245691;61;20369;-67
2021/07/02 04:17:07;0.00;0.00;0.62;0.00;0.00;0.62;20.97;11.50;;;23.40;45.20;;;;;;2245911;61;20366;-64
2021/07/02 04:19:35;0.00;0.00;0.62;0.00;0.00;0.62;14.73;10.70;;;23.40;44.50;;;;;;2242529;61;20366;-67
2021/07/02 04:22:03;0.00;0.00;0.62;0.00;0.00;0.62;21.33;11.20;;;23.40;44.50;;;;;;2245570;61;20569;-68
2021/07/02 04:24:30;0.00;0.00;0.62;0.00;0.00;0.62;20.43;12.37;;;23.40;44.60;;;;;;2245878;61;20447;-67
2021/07/02 04:26:57;0.00;0.00;0.62;0.00;0.00;0.62;18.93;10.20;;;23.40;44.60;;;;;;2246308;61;20389;-67
2021/07/02 04:29:26;0.00;0.00;0.62;0.00;0.00;0.62;19.23;10.27;;;23.40;44.50;;;;;;2245243;61;20446;-67
2021/07/02 04:31:53;0.00;0.00;0.62;0.00;0.00;0.62;22.80;12.60;;;23.40;44.50;;;;;;2245602;61;20699;-67
2021/07/02 04:34:20;0.00;0.00;0.62;0.00;0.00;0.62;22.20;12.63;;;23.40;44.50;;;;;;2246294;61;20370;-68
2021/07/02 04:36:46;0.00;0.00;0.62;0.00;0.00;0.62;21.13;10.90;;;23.40;44.40;;;;;;2245302;61;20360;-66
2021/07/02 04:39:13;0.00;0.00;0.62;0.00;0.00;0.62;22.00;12.63;;;23.40;44.40;;;;;;2245906;61;20362;-67
2021/07/02 04:41:40;0.00;0.00;0.62;0.00;0.00;0.62;18.53;10.67;;;23.40;44.40;;;;;;2246133;61;20382;-66
2021/07/02 04:44:06;0.00;0.00;0.62;0.00;0.00;0.62;17.37;10.70;;;23.40;44.30;;;;;;2245244;61;20374;-67
2021/07/02 04:46:34;0.00;0.00;0.62;0.00;0.00;0.62;20.63;10.77;;;23.40;44.30;;;;;;2245890;61;20367;-67
2021/07/02 04:49:01;0.00;0.00;0.62;0.00;0.00;0.62;20.80;11.97;;;23.40;44.90;;;;;;2246150;61;20355;-69
2021/07/02 04:51:27;0.00;0.00;0.62;0.00;0.00;0.62;15.30;11.40;;;23.40;44.20;;;;;;2245168;61;20356;-69
2021/07/02 04:53:54;0.00;0.00;0.62;0.00;0.00;0.62;23.27;11.70;;;23.40;44.10;;;;;;2245857;61;20506;-68
2021/07/02 04:56:21;0.00;0.00;0.62;0.00;0.00;0.62;21.00;12.30;;;23.40;44.10;;;;;;2242406;61;20362;-69
2021/07/02 04:58:54;0.00;0.00;0.62;0.00;0.00;0.62;17.67;11.70;;;23.40;44.10;;;;;;2245264;61;20382;-66
2021/07/02 05:01:22;0.00;0.00;0.62;0.00;0.00;0.62;15.57;11.10;;;23.40;44.10;;;;;;2245666;61;20398;-69
2021/07/02 05:03:52;0.00;0.00;0.62;0.00;0.00;0.62;18.40;12.50;;;23.40;44.20;;;;;;2246195;61;20397;-67
2021/07/02 05:06:19;0.00;0.00;0.62;0.00;0.00;0.62;19.33;11.70;;;23.30;44.20;;;;;;2245336;61;20361;-68
2021/07/02 05:08:45;0.00;0.00;0.62;0.00;0.00;0.62;17.37;10.27;;;23.30;44.10;;;;;;2245218;61;20362;-67
2021/07/02 05:11:13;0.00;0.00;0.62;0.00;0.00;0.62;17.93;11.00;;;23.30;44.20;;;;;;2242441;61;20631;-68
2021/07/02 05:13:40;0.00;0.00;0.62;0.00;0.00;0.62;16.17;10.87;;;23.30;44.20;;;;;;2244961;61;20478;-66
2021/07/02 05:16:07;0.00;0.00;0.62;0.00;0.00;0.62;16.93;10.40;;;23.30;44.20;;;;;;2242661;61;20359;-65
2021/07/02 05:18:34;0.00;0.00;0.62;0.00;0.00;0.62;17.20;11.17;;;23.30;44.20;;;;;;2244054;61;20363;-65
2021/07/02 05:21:02;0.00;0.00;0.62;0.00;0.00;0.62;15.97;10.57;;;23.30;44.30;;;;;;2243890;61;20391;-69
2021/07/02 05:23:28;0.00;0.00;0.62;0.00;0.00;0.62;17.53;11.10;;;23.30;44.20;;;;;;2245676;61;20387;-67
2021/07/02 05:25:55;0.00;0.00;0.62;0.00;0.00;0.62;12.97;10.20;;;23.30;44.20;;;;;;2245999;61;20414;-68
2021/07/02 05:28:21;0.00;0.00;0.62;0.00;0.00;0.62;22.47;11.53;;;23.30;44.20;;;;;;2245257;61;20366;-67
2021/07/02 05:30:48;0.00;0.00;0.62;0.00;0.00;0.62;19.00;10.13;;;23.30;44.20;;;;;;2245590;61;20348;-69
2021/07/02 05:33:15;0.00;0.00;0.62;0.00;0.00;0.62;15.33;9.80;;;23.30;44.20;;;;;;2245844;61;20447;-67
2021/07/02 05:35:41;0.00;0.00;0.62;0.00;0.00;0.62;13.50;9.43;;;23.30;44.20;;;;;;2245290;61;20359;-66
2021/07/02 05:38:09;0.00;0.00;0.62;0.00;0.00;0.62;13.50;8.90;;;23.30;44.30;;;;;;2245451;61;20359;-70
2021/07/02 05:40:36;0.00;0.00;0.62;0.00;0.00;0.62;10.80;8.20;;;23.30;44.30;;;;;;2245850;61;20418;-69
2021/07/02 05:43:02;0.00;0.00;0.62;0.00;0.00;0.62;16.60;9.73;;;23.30;44.40;;;;;;2245334;61;20378;-73
2021/07/02 05:45:30;0.00;0.00;0.62;0.00;0.00;0.62;12.03;8.03;;;23.30;44.30;;;;;;2245575;61;20359;-66
2021/07/02 05:48:00;0.00;0.00;0.62;0.00;0.00;0.62;10.70;8.40;;;23.40;44.90;;;;;;2244622;61;20367;-67
2021/07/02 05:50:27;0.00;0.00;0.62;0.00;0.00;0.62;12.00;8.00;;;23.40;44.30;;;;;;2245464;61;20615;-66
2021/07/02 05:52:57;0.00;0.00;0.62;0.00;0.00;0.62;10.80;8.27;;;23.40;44.20;;;;;;2245309;61;20751;-66
2021/07/02 05:55:26;0.00;0.00;0.62;0.00;0.00;0.62;11.30;8.00;;;23.50;44.20;;;;;;2245690;61;20397;-69
2021/07/02 05:57:53;0.00;0.00;0.62;0.00;0.00;0.62;8.07;6.97;;;23.50;44.10;;;;;;2241576;61;20363;-66
2021/07/02 06:00:21;0.00;0.00;0.62;0.00;0.00;0.62;8.40;7.20;;;23.50;44.10;;;;;;2245459;61;20386;-67
2021/07/02 06:02:48;0.00;0.00;0.62;0.00;0.00;0.62;8.70;7.83;;;23.60;44.10;;;;;;2245740;61;20387;-70
2021/07/02 06:05:15;0.00;0.00;0.62;0.00;0.00;0.62;11.40;7.70;;;23.60;44.00;;;;;;2244980;61;20374;-66
2021/07/02 06:07:43;0.00;0.00;0.62;0.00;0.00;0.62;9.47;7.17;;;23.60;43.90;;;;;;2245574;61;20355;-67
2021/07/02 06:10:12;0.00;0.00;0.62;0.00;0.00;0.62;9.27;6.90;;;23.60;43.80;;;;;;2245822;61;20362;-68
2021/07/02 06:12:40;0.00;0.00;0.62;0.00;0.00;0.62;10.07;7.90;;;23.70;43.90;;;;;;2245184;61;20390;-67
2021/07/02 06:15:08;0.00;0.00;0.62;0.00;0.00;0.62;7.07;6.13;;;23.70;43.80;;;;;;2245557;61;20362;-67
2021/07/02 06:17:35;0.00;0.00;0.62;0.00;0.00;0.62;9.27;6.93;;;23.70;43.70;;;;;;2245785;61;20384;-68
2021/07/02 06:20:04;0.00;0.00;0.62;0.00;0.00;0.62;12.77;8.40;;;23.70;43.60;;;;;;2245279;61;20382;-67
2021/07/02 06:22:30;0.00;0.00;0.62;0.00;0.00;0.62;10.10;6.70;;;23.80;43.60;;;;;;2245351;61;20379;-68
2021/07/02 06:24:57;0.00;0.00;0.62;0.00;0.00;0.62;9.83;7.10;;;23.80;43.60;;;;;;2245788;61;20358;-65
2021/07/02 06:27:24;0.00;0.00;0.62;0.00;0.00;0.62;8.53;6.67;;;23.80;43.60;;;;;;2245488;61;20363;-69
2021/07/02 06:29:53;0.00;0.00;0.62;0.00;0.00;0.62;8.17;6.70;;;23.80;43.50;;;;;;2238431;61;20359;-66
2021/07/02 06:32:20;0.00;0.00;0.62;0.00;0.00;0.62;7.97;6.70;;;23.90;43.50;;;;;;2245622;61;20393;-68
2021/07/02 06:34:46;0.00;0.00;0.62;0.00;0.00;0.62;9.27;7.07;;;23.90;43.40;;;;;;2245458;61;20691;-66
2021/07/02 06:37:13;0.00;0.00;0.62;0.00;0.00;0.62;8.43;7.37;;;23.90;43.40;;;;;;2245221;61;20365;-67
2021/07/02 06:39:40;0.00;0.00;0.62;0.00;0.00;0.62;8.60;6.30;;;23.90;43.30;;;;;;2245728;61;20355;-69
2021/07/02 06:42:06;0.00;0.00;0.62;0.00;0.00;0.62;10.00;7.37;;;23.90;43.20;;;;;;2245352;61;20409;-66
2021/07/02 06:44:33;0.00;0.00;0.62;0.00;0.00;0.62;10.53;7.30;;;24.00;43.30;;;;;;2244992;61;20366;-66
2021/07/02 06:47:01;0.00;0.00;0.62;0.00;0.00;0.62;10.50;7.43;;;24.00;43.20;;;;;;2245337;61;20367;-67
2021/07/02 06:49:28;0.00;0.00;0.62;0.00;0.00;0.62;7.53;5.97;;;24.00;43.10;;;;;;2245370;61;20475;-67
2021/07/02 06:51:55;0.00;0.00;0.62;0.00;0.00;0.62;7.37;6.60;;;24.00;43.10;;;;;;2244830;61;20355;-68
2021/07/02 06:54:22;0.00;0.00;0.62;0.00;0.00;0.62;9.67;7.20;;;24.00;43.10;;;;;;2245825;61;20374;-70
2021/07/02 06:57:07;0.00;0.00;0.62;0.00;0.00;0.62;11.37;6.70;;;24.10;43.10;;;;;;2245314;61;20358;-69
2021/07/02 06:59:40;0.00;0.00;0.62;0.00;0.00;0.62;8.90;6.70;;;24.10;43.00;;;;;;2245330;61;20395;-66
2021/07/02 07:02:10;0.00;0.00;0.62;0.00;0.00;0.62;10.90;7.23;;;24.10;43.00;;;;;;2245701;61;20386;-68
2021/07/02 07:04:37;0.00;0.00;0.62;0.00;0.00;0.62;8.27;7.37;;;24.10;43.00;;;;;;2245033;61;20707;-67
2021/07/02 07:07:06;0.00;0.00;0.62;0.00;0.00;0.62;7.47;6.00;;;24.10;43.00;;;;;;2245355;61;20354;-66
2021/07/02 07:09:34;0.00;0.00;0.62;0.00;0.00;0.62;11.73;6.20;;;24.10;42.90;;;;;;2245735;61;20683;-68
2021/07/02 07:12:01;0.00;0.00;0.62;0.00;0.00;0.62;7.77;6.97;;;24.20;42.90;;;;;;2240958;61;20757;-68
2021/07/02 07:14:28;0.00;0.00;0.62;0.00;0.00;0.62;8.27;6.60;;;24.20;42.90;;;;;;2245413;61;20359;-68
2021/07/02 07:16:55;0.00;0.00;0.62;0.00;0.00;0.62;8.40;6.40;;;24.20;42.90;;;;;;2245771;61;20358;-67
2021/07/02 07:19:26;0.00;0.00;0.62;0.00;0.00;0.62;8.23;6.40;;;24.20;43.50;;;;;;2244828;61;20359;-67
2021/07/02 07:21:53;0.00;0.00;0.62;0.00;0.00;0.62;8.67;7.20;;;24.20;42.80;;;;;;2245304;61;20726;-68
2021/07/02 07:24:20;0.00;0.00;0.62;0.00;0.00;0.62;7.30;5.97;;;24.30;42.80;;;;;;2245646;61;20377;-69
2021/07/02 07:26:47;0.00;0.00;0.62;0.00;0.00;0.62;7.60;6.37;;;24.30;42.80;;;;;;2244886;61;20688;-68
2021/07/02 07:29:14;0.00;0.00;0.62;0.00;0.00;0.62;9.23;6.60;;;24.30;42.70;;;;;;2245340;61;20699;-66
2021/07/02 07:31:41;0.00;0.00;0.62;0.00;0.00;0.62;7.47;6.43;;;24.30;42.70;;;;;;2245307;61;20355;-67
2021/07/02 07:34:08;0.00;0.00;0.62;0.00;0.00;0.62;7.47;6.33;;;24.30;43.30;;;;;;2244747;61;20466;-67
2021/07/02 07:36:37;0.00;0.00;0.62;0.00;0.00;0.62;6.60;5.90;;;24.40;42.70;;;;;;2245432;61;20358;-67
2021/07/02 07:39:05;0.00;0.00;0.62;0.00;0.00;0.62;7.77;6.77;;;24.40;42.60;;;;;;2245614;61;20378;-67
2021/07/02 07:41:31;0.00;0.00;0.62;0.00;0.00;0.62;6.57;5.87;;;24.40;42.60;;;;;;2244707;61;20577;-67
2021/07/02 07:43:58;0.00;0.00;0.62;0.00;0.00;0.62;8.27;6.63;;;24.40;42.60;;;;;;2241636;61;20378;-68
2021/07/02 07:46:27;0.00;0.00;0.62;0.00;0.00;0.62;6.50;5.87;;;24.40;42.50;;;;;;2245802;61;20403;-66
2021/07/02 07:48:54;0.00;0.00;0.62;0.00;0.00;0.62;9.43;5.73;;;24.50;42.50;;;;;;2244876;61;20358;-66
2021/07/02 07:53:54;0.00;0.00;0.62;0.00;0.00;0.62;11.60;7.60;;;24.50;42.40;;;;;;2245473;61;20390;-68
2021/07/02 07:56:21;0.00;0.00;0.62;0.00;0.00;0.62;6.53;5.87;;;24.50;42.40;;;;;;2244836;61;20363;-68
2021/07/02 07:58:48;0.00;0.00;0.62;0.00;0.00;0.62;9.40;6.27;;;24.50;42.30;;;;;;2245242;61;20357;-64
2021/07/02 08:01:14;0.00;0.00;0.62;0.00;0.00;0.62;7.97;6.57;;;24.50;42.30;;;;;;2242030;61;20687;-69
2021/07/02 08:03:40;0.00;0.00;0.62;0.00;0.00;0.62;9.10;6.40;;;24.50;42.40;;;;;;2243915;61;20738;-67
2021/07/02 08:06:07;0.00;0.00;0.62;0.00;0.00;0.62;10.90;7.80;;;24.50;42.60;;;;;;2245241;61;20628;-67
2021/07/02 08:08:34;0.00;0.00;0.62;0.00;0.00;0.62;11.30;6.70;;;24.60;42.80;;;;;;2244298;61;20694;-69
2021/07/02 08:11:02;0.00;0.00;0.62;0.00;0.00;0.62;8.13;6.40;;;24.60;42.70;;;;;;2240754;61;20786;-69
2021/07/02 08:13:29;0.00;0.00;0.62;0.00;0.00;0.62;8.87;6.37;;;24.60;42.80;;;;;;2245536;61;20801;-71
2021/07/02 08:15:56;0.00;0.00;0.62;0.00;0.00;0.62;11.80;7.70;;;24.60;43.00;;;;;;2245166;61;20363;-62
2021/07/02 08:18:23;0.00;0.00;0.62;0.00;0.00;0.62;8.40;6.27;;;24.60;43.20;;;;;;2244966;61;20374;-71
2021/07/02 08:20:50;0.00;0.00;0.62;0.00;0.00;0.62;9.37;7.00;;;24.60;43.10;;;;;;2246015;61;20414;-67
2021/07/02 08:23:17;0.00;0.00;0.62;0.00;0.00;0.62;8.67;6.80;;;24.70;43.30;;;;;;2260969;49;20441;-67
2021/07/02 08:25:43;0.00;0.00;0.62;0.00;0.00;0.62;11.00;7.27;;;24.60;43.20;;;;;;2246070;61;20362;-68
2021/07/02 08:30:57;0.00;0.00;0.62;0.00;0.00;0.62;8.43;7.00;;;24.70;43.90;;;;;;2248863;61;20393;-75
2021/07/02 08:33:23;0.00;0.00;0.62;0.00;0.00;0.62;6.90;6.20;;;24.70;43.10;;;;;;2249378;61;20811;-69
2021/07/02 08:35:50;0.00;0.00;0.62;0.00;0.00;0.62;10.00;7.83;;;24.80;43.20;;;;;;2250084;61;20385;-71
2021/07/02 08:38:17;0.00;0.00;0.62;0.00;0.00;0.62;11.23;6.50;;;24.80;43.10;;;;;;2249316;61;20357;-71
2021/07/02 08:40:44;0.00;0.00;0.62;0.00;0.00;0.62;9.23;7.50;;;24.80;43.10;;;;;;2246245;61;20388;-70
2021/07/02 08:43:12;0.00;0.00;0.62;0.00;0.00;0.62;8.80;7.23;;;24.80;43.00;;;;;;2246277;61;20453;-70
2021/07/02 08:45:39;0.00;0.00;0.62;0.00;0.00;0.62;7.20;5.10;;;24.90;43.00;;;;;;2249512;61;20369;-69
2021/07/02 08:48:07;0.00;0.00;0.62;0.00;0.00;0.62;8.07;6.50;;;24.90;42.90;;;;;;2250004;61;20369;-65
2021/07/02 08:50:36;0.00;0.00;0.62;0.00;0.00;0.62;7.57;6.00;;;24.90;42.90;;;;;;2250262;61;20353;-62
2021/07/02 08:53:04;0.00;0.00;0.62;0.00;0.00;0.62;6.50;5.90;;;24.90;42.80;;;;;;2249400;61;20384;-69
2021/07/02 08:55:31;0.00;0.00;0.62;0.00;0.00;0.62;9.00;6.13;;;25.00;42.80;;;;;;2249357;61;20710;-69
2021/07/02 08:57:58;0.00;0.00;0.62;0.00;0.00;0.62;7.00;5.57;;;25.00;42.70;;;;;;2249831;61;20468;-71
2021/07/02 09:00:27;0.00;0.00;0.62;0.00;0.00;0.62;8.10;5.93;;;25.00;42.60;;;;;;2249212;61;20378;-71
2021/07/02 09:02:55;0.00;0.00;0.62;0.00;0.00;0.62;7.87;5.10;;;25.00;42.50;;;;;;2249427;61;20386;-65
2021/07/02 09:05:33;0.00;0.00;0.62;0.00;0.00;0.62;7.03;5.80;;;25.10;42.60;;;;;;2244408;61;20357;-65
2021/07/02 09:08:01;0.00;0.00;0.62;0.00;0.00;0.62;8.73;6.10;;;25.10;42.50;;;;;;2249498;61;20361;-68
2021/07/02 09:10:32;0.00;0.00;0.62;0.00;0.00;0.62;6.23;5.40;;;25.10;42.40;;;;;;2250000;61;20362;-68
2021/07/02 09:13:00;0.00;0.00;0.62;0.00;0.00;0.62;6.93;6.13;;;25.10;42.30;;;;;;2249370;61;20373;-68
2021/07/02 09:15:29;0.00;0.00;0.62;0.00;0.00;0.62;7.97;5.90;;;25.10;42.30;;;;;;2249519;61;20591;-67
2021/07/02 09:17:58;0.00;0.00;0.62;0.00;0.00;0.62;7.20;5.90;;;25.20;42.30;;;;;;2250289;61;20570;-66
2021/07/02 09:20:27;0.00;0.00;0.62;0.00;0.00;0.62;7.97;5.90;;;25.20;42.20;;;;;;2249620;61;20398;-68
2021/07/02 09:22:55;0.00;0.00;0.62;0.00;0.00;0.62;8.93;6.83;;;25.20;42.10;;;;;;2249429;61;20389;-69
2021/07/02 09:25:26;0.00;0.00;0.62;0.00;0.00;0.62;8.80;7.10;;;25.20;42.00;;;;;;2249998;61;20701;-70
2021/07/02 09:27:56;0.00;0.00;0.62;0.00;0.00;0.62;10.27;6.80;;;25.20;42.00;;;;;;2249726;61;20433;-68
2021/07/02 09:30:25;0.00;0.00;0.62;0.00;0.00;0.62;11.90;6.63;;;25.30;42.00;;;;;;2249115;61;20358;-66
2021/07/02 09:32:58;0.00;0.00;0.62;0.00;0.00;0.62;8.13;7.13;;;25.30;42.00;;;;;;2249729;61;20481;-64
2021/07/02 09:35:32;0.00;0.00;0.62;0.00;0.00;0.62;7.87;6.90;;;25.40;41.90;;;;;;2249760;61;20369;-66
2021/07/02 09:38:00;0.00;0.00;0.62;0.00;0.00;0.62;10.03;6.77;;;25.40;41.90;;;;;;2249510;61;20369;-67
2021/07/02 09:40:30;0.00;0.00;0.62;0.00;0.00;0.62;8.60;7.20;;;25.40;41.90;;;;;;2246016;61;20378;-67